Time;durP1;ratioP1;P1;durP2;ratioP2;P2;SDS_P1;SDS_P2;PMS_P1;PMS_P2;Temp;Humidity;BMP_temperature;BMP_pressure;BME280_temperature;BME280_humidity;BME280_pressure;Samples;Min_cycle;Max_cycle;Signal;HPM_P1;HPM_P2
2022/12/05 00:01:41;;;;;;;36.35;23.50;;;;;;;1.90;93.71;101572.16;1825128;77;25801;-82
2022/12/05 00:04:17;;;;;;;34.53;21.50;;;;;;;1.91;93.79;101570.33;1830094;77;26182;-82
2022/12/05 00:06:43;;;;;;;27.67;19.65;;;;;;;1.89;93.74;101562.52;1818247;77;26358;-81
2022/12/05 00:09:12;;;;;;;33.05;22.30;;;;;;;1.89;93.75;101563.00;1823554;76;25663;-81
2022/12/05 00:11:41;;;;;;;31.07;20.05;;;;;;;1.89;93.79;101569.13;1819590;76;25713;-81
2022/12/05 00:14:09;;;;;;;33.00;21.57;;;;;;;1.91;93.87;101571.19;1796693;78;25833;-81
2022/12/05 00:16:39;;;;;;;34.80;20.72;;;;;;;1.90;93.69;101572.16;1816010;78;27471;-81
2022/12/05 00:19:07;;;;;;;31.77;20.82;;;;;;;1.94;93.90;101569.66;1804824;77;25960;-81
2022/12/05 00:21:36;;;;;;;32.40;21.75;;;;;;;1.95;93.79;101570.02;1787413;79;25862;-81
2022/12/05 00:24:05;;;;;;;39.38;23.02;;;;;;;1.97;93.77;101567.25;1823424;78;25448;-81
2022/12/05 00:26:31;;;;;;;33.18;20.75;;;;;;;1.97;93.75;101557.53;1795657;79;25843;-82
2022/12/05 00:28:59;;;;;;;31.35;20.40;;;;;;;1.96;93.50;101562.94;1795396;78;27500;-82
2022/12/05 00:31:26;;;;;;;28.65;19.85;;;;;;;1.94;93.46;101552.95;1795365;78;25803;-81
2022/12/05 00:33:54;;;;;;;29.10;19.90;;;;;;;1.91;93.39;101543.91;1811293;78;25809;-81
2022/12/05 00:36:25;;;;;;;28.50;19.60;;;;;;;1.89;93.28;101542.71;1814818;78;25472;-82
2022/12/05 00:38:52;;;;;;;;;;;;;;;1.89;93.46;101543.18;1815589;78;25276;-81
2022/12/05 00:41:22;;;;;;;31.02;20.75;;;;;;;1.87;93.33;101541.98;1813690;78;27447;-82
2022/12/05 00:43:50;;;;;;;35.52;21.07;;;;;;;1.83;93.43;101541.83;1817389;78;26046;-82
2022/12/05 00:46:21;;;;;;;29.92;20.43;;;;;;;1.83;93.39;101542.30;1778794;78;25826;-81
2022/12/05 00:48:47;;;;;;;;;;;;;;;1.80;93.39;101539.39;1795292;78;25771;-82
2022/12/05 00:51:25;;;;;;;31.30;20.20;;;;;;;1.80;93.47;101547.31;1784006;77;26558;-81
2022/12/05 00:53:52;;;;;;;30.23;19.77;;;;;;;1.76;93.47;101540.56;1803311;78;27449;-81
2022/12/05 00:56:22;;;;;;;32.38;19.90;;;;;;;1.76;93.55;101546.31;1837522;77;25985;-81
2022/12/05 00:58:51;;;;;;;34.85;20.97;;;;;;;1.77;93.56;101543.59;1813768;77;25858;-81
2022/12/05 01:01:28;;;;;;;34.83;18.98;;;;;;;1.77;93.55;101548.87;1821235;77;25738;-81
2022/12/05 01:03:56;;;;;;;34.90;19.82;;;;;;;1.78;93.60;101544.41;1793645;78;25961;-81
2022/12/05 01:06:25;;;;;;;32.17;19.27;;;;;;;1.77;93.57;101543.59;1804826;78;27454;-82
2022/12/05 01:08:54;;;;;;;33.28;20.88;;;;;;;1.80;93.72;101549.95;1814292;77;25452;-81
2022/12/05 01:11:22;;;;;;;36.95;21.25;;;;;;;1.81;93.61;101550.81;1803152;78;25309;-81
2022/12/05 01:13:49;;;;;;;35.92;20.77;;;;;;;1.81;93.68;101549.02;1800463;78;25804;-81
2022/12/05 01:16:22;;;;;;;32.50;20.25;;;;;;;1.82;93.50;101548.55;1781792;79;25795;-82
2022/12/05 01:18:49;;;;;;;32.28;20.17;;;;;;;1.79;93.37;101546.96;1791859;80;27450;-81
2022/12/05 01:21:16;;;;;;;29.00;18.77;;;;;;;1.77;93.44;101552.83;1807349;79;25708;-81
2022/12/05 01:23:42;;;;;;;30.80;19.35;;;;;;;1.77;93.42;101548.02;1791554;78;25814;-81
2022/12/05 01:26:12;;;;;;;34.65;20.72;;;;;;;1.74;93.47;101541.15;1814636;78;26661;-82
2022/12/05 01:28:39;;;;;;;30.85;18.65;;;;;;;1.76;93.59;101533.11;1788474;78;25257;-81
2022/12/05 01:31:11;;;;;;;32.08;19.62;;;;;;;1.76;93.54;101537.06;1779385;80;27445;-82
2022/12/05 01:33:37;;;;;;;32.23;18.77;;;;;;;1.76;93.56;101529.14;1795428;79;25808;-81
2022/12/05 01:36:06;;;;;;;28.52;17.82;;;;;;;1.74;93.45;101532.37;1807943;78;26413;-82
2022/12/05 01:38:32;;;;;;;30.10;18.87;;;;;;;1.72;93.56;101526.35;1762515;80;25815;-81
2022/12/05 01:41:02;;;;;;;31.55;19.52;;;;;;;1.72;93.54;101526.35;1792207;78;25798;-81
2022/12/05 01:43:29;;;;;;;37.40;19.07;;;;;;;1.70;93.50;101528.26;1824725;77;27529;-81
2022/12/05 01:45:55;;;;;;;31.40;20.20;;;;;;;1.68;93.53;101520.92;1824547;77;25996;-82
2022/12/05 01:48:29;;;;;;;30.82;20.50;;;;;;;1.68;93.63;101513.85;1845195;77;25876;-82
2022/12/05 01:50:57;;;;;;;35.45;20.57;;;;;;;1.68;93.68;101502.44;1787764;78;25803;-81
2022/12/05 01:53:25;;;;;;;27.95;17.57;;;;;;;1.71;93.71;101506.20;1807076;78;25326;-82
2022/12/05 01:55:54;;;;;;;32.23;20.08;;;;;;;1.70;93.64;101506.66;1807785;77;27435;-81
2022/12/05 01:58:23;;;;;;;27.32;18.65;;;;;;;1.69;93.57;101504.14;1820696;78;26133;-82
2022/12/05 02:00:50;;;;;;;32.33;19.82;;;;;;;1.66;93.51;101510.48;1824028;78;25771;-81
2022/12/05 02:03:19;;;;;;;27.58;18.05;;;;;;;1.64;93.66;101501.82;1819572;78;25734;-82
2022/12/05 02:05:50;;;;;;;31.05;20.60;;;;;;;1.66;93.62;101495.10;1821240;77;25769;-82
2022/12/05 02:08:16;;;;;;;29.05;18.50;;;;;;;1.64;93.72;101497.01;1844402;77;28251;-81
2022/12/05 02:10:47;;;;;;;32.50;20.68;;;;;;;1.65;93.77;101496.07;1813968;77;25943;-81
2022/12/05 02:13:43;;;;;;;33.63;20.85;;;;;;;1.66;93.83;101503.02;1782046;78;25744;-82
2022/12/05 02:16:48;;;;;;;32.63;19.95;;;;;;;1.66;93.82;101503.88;1822243;78;26243;-81
2022/12/05 02:20:09;;;;;;;30.90;19.75;;;;;;;1.64;93.72;101497.01;1820765;78;25963;-81
2022/12/05 02:23:03;;;;;;;30.75;18.57;;;;;;;1.64;93.94;101498.33;1817167;78;27447;-82
2022/12/05 02:25:44;;;;;;;31.42;17.95;;;;;;;1.63;93.75;101486.91;1824041;77;25899;-82
2022/12/05 02:28:46;;;;;;;;;;;;;;;1.62;93.82;101484.39;1817141;78;26366;-82
2022/12/05 02:31:35;;;;;;;30.95;18.05;;;;;;;1.64;94.00;101485.13;1782012;78;25851;-82
2022/12/05 02:34:10;;;;;;;37.67;22.20;;;;;;;1.61;93.85;101474.30;1806915;77;26434;-82
2022/12/05 02:36:51;;;;;;;36.20;22.62;;;;;;;1.58;93.90;101459.50;1784141;78;27522;-82
2022/12/05 02:39:49;;;;;;;36.17;22.55;;;;;;;1.58;93.86;101458.69;1815351;78;25755;-82
2022/12/05 02:42:29;;;;;;;33.00;20.02;;;;;;;1.58;93.91;101458.19;1798194;79;25938;-81
2022/12/05 02:45:06;;;;;;;36.08;21.90;;;;;;;1.58;94.04;101454.23;1806029;78;26220;-81
2022/12/05 02:47:36;;;;;;;34.15;19.92;;;;;;;1.62;94.09;101464.12;1790889;79;25914;-82
2022/12/05 02:50:06;;;;;;;36.58;21.15;;;;;;;1.61;93.93;101459.77;1798142;78;27458;-82
2022/12/05 02:52:33;;;;;;;32.25;19.60;;;;;;;1.61;93.95;101462.88;1805913;78;25851;-83
2022/12/05 02:55:02;;;;;;;29.00;18.57;;;;;;;1.59;93.86;101468.28;1800896;79;26088;-82
2022/12/05 02:57:31;;;;;;;27.67;18.30;;;;;;;1.59;93.96;101476.20;1785051;79;26724;-82
2022/12/05 02:59:59;;;;;;;31.93;18.48;;;;;;;1.59;93.88;101478.84;1793552;79;25445;-82
2022/12/05 03:02:32;;;;;;;31.52;19.25;;;;;;;1.58;93.92;101485.09;1810828;77;28269;-82
2022/12/05 03:05:06;;;;;;;28.38;17.95;;;;;;;1.60;94.14;101483.66;1804631;77;25885;-82
2022/12/05 03:07:37;;;;;;;29.20;18.27;;;;;;;1.62;94.11;101485.24;1803281;77;26574;-82
2022/12/05 03:10:07;;;;;;;32.28;19.10;;;;;;;1.65;94.13;101483.69;1812535;77;25710;-82
2022/12/05 03:12:41;;;;;;;31.07;19.42;;;;;;;1.66;94.06;101484.07;1778008;79;25826;-82
2022/12/05 03:15:28;;;;;;;33.38;19.95;;;;;;;1.66;94.01;101477.47;1802495;78;28205;-82
2022/12/05 03:18:17;;;;;;;31.30;18.70;;;;;;;1.67;93.95;101492.34;1816385;78;25808;-81
2022/12/05 03:20:49;;;;;;;29.48;17.67;;;;;;;1.62;93.64;101485.71;1813646;78;26609;-82
2022/12/05 03:23:32;;;;;;;30.25;18.02;;;;;;;1.58;93.75;101482.45;1804965;78;25790;-82
2022/12/05 03:26:19;;;;;;;30.23;18.50;;;;;;;1.58;93.82;101485.09;1811655;78;25808;-82
2022/12/05 03:29:00;;;;;;;34.03;19.25;;;;;;;1.58;93.87;101476.32;1804715;77;27530;-82
2022/12/05 03:31:37;;;;;;;27.58;16.93;;;;;;;1.58;93.94;101480.28;1828374;77;25313;-82
2022/12/05 03:34:08;;;;;;;27.40;17.05;;;;;;;1.55;93.77;101476.05;1817904;77;25890;-82
2022/12/05 03:36:41;;;;;;;29.02;17.95;;;;;;;1.53;93.77;101471.36;1783983;79;25446;-82
2022/12/05 03:39:19;;;;;;;28.05;17.62;;;;;;;1.50;93.79;101469.77;1780142;79;25334;-82
2022/12/05 03:42:12;;;;;;;26.50;17.20;;;;;;;1.51;93.94;101470.16;1815042;78;27671;-82
2022/12/05 03:44:49;;;;;;;30.77;18.90;;;;;;;1.50;93.86;101473.73;1814548;77;25784;-82
2022/12/05 03:47:27;;;;;;;28.02;15.95;;;;;;;1.50;93.91;101475.52;1825114;76;25885;-82
2022/12/05 03:49:58;;;;;;;25.70;16.62;;;;;;;1.50;93.90;101475.52;1853786;76;26486;-82
2022/12/05 03:52:29;;;;;;;28.10;17.98;;;;;;;1.52;93.98;101477.11;1859031;76;25307;-81
2022/12/05 03:55:00;;;;;;;27.30;17.23;;;;;;;1.54;93.93;101473.03;1807776;77;27715;-81
2022/12/05 03:57:42;;;;;;;30.37;18.95;;;;;;;1.52;93.79;101470.51;1835638;76;25786;-82
2022/12/05 04:00:21;;;;;;;25.43;15.60;;;;;;;1.52;93.79;101476.26;1782587;78;25848;-82
2022/12/05 04:03:05;;;;;;;26.15;16.17;;;;;;;1.50;93.71;101474.20;1804823;78;26573;-82
2022/12/05 04:05:45;;;;;;;26.68;15.50;;;;;;;1.45;93.73;101463.14;1830853;77;25957;-81
2022/12/05 04:08:47;;;;;;;24.10;16.12;;;;;;;1.44;93.78;101455.69;1805740;78;27460;-82
2022/12/05 04:11:18;;;;;;;26.05;16.07;;;;;;;1.44;93.82;101456.16;1793888;78;25933;-81
2022/12/05 04:13:52;;;;;;;23.87;15.13;;;;;;;1.43;93.89;101453.98;1819603;76;26480;-82
2022/12/05 04:19:26;;;;;;;35.78;20.62;;;;;;;1.41;93.79;101440.05;1821749;77;25295;-82
2022/12/05 04:21:56;;;;;;;46.13;25.05;;;;;;;1.41;93.90;101449.29;1825443;77;27434;-82
2022/12/05 04:27:38;;;;;;;34.48;20.23;;;;;;;1.44;94.09;101446.45;1801739;77;25847;-82
2022/12/05 04:30:15;;;;;;;28.17;17.12;;;;;;;1.46;94.02;101449.82;1795152;77;25852;-81
2022/12/05 04:33:11;;;;;;;37.05;21.85;;;;;;;1.47;94.03;101449.36;1808925;77;25845;-81
2022/12/05 04:35:54;;;;;;;39.45;22.48;;;;;;;1.51;94.15;101452.14;1797783;78;28286;-82
2022/12/05 04:38:46;;;;;;;35.30;20.70;;;;;;;1.52;94.09;101453.81;1782994;79;25898;-81
2022/12/05 04:41:21;;;;;;;47.93;26.75;;;;;;;1.52;93.99;101457.30;1793704;78;25790;-82
2022/12/05 04:43:51;;;;;;;38.38;20.75;;;;;;;1.51;94.08;101464.02;1799559;78;25725;-82
2022/12/05 04:46:20;;;;;;;31.65;18.27;;;;;;;1.51;94.02;101458.28;1814322;78;25654;-82
2022/12/05 04:48:52;;;;;;;38.83;22.45;;;;;;;1.52;94.12;101461.27;1825502;78;27450;-82
2022/12/05 04:51:23;;;;;;;32.80;18.73;;;;;;;1.53;93.98;101462.97;1822231;77;26102;-83
2022/12/05 04:53:53;;;;;;;27.35;17.25;;;;;;;1.54;93.99;101469.92;1794939;78;25825;-82
2022/12/05 04:56:24;;;;;;;28.02;18.20;;;;;;;1.52;93.79;101469.66;1810475;78;25804;-82
2022/12/05 04:58:50;;;;;;;27.37;18.17;;;;;;;1.49;93.69;101469.89;1800008;78;25833;-82
2022/12/05 05:01:34;;;;;;;27.48;17.75;;;;;;;1.49;93.86;101474.70;1811036;77;27421;-82
2022/12/05 05:04:12;;;;;;;23.92;16.70;;;;;;;1.50;93.83;101469.77;1827200;77;25755;-82
2022/12/05 05:06:41;;;;;;;27.98;16.05;;;;;;;1.51;93.89;101466.20;1826134;77;25943;-81
2022/12/05 05:09:09;;;;;;;26.00;18.35;;;;;;;1.51;93.76;101465.34;1835925;77;25459;-82
2022/12/05 05:11:37;;;;;;;24.32;16.07;;;;;;;1.48;93.65;101463.76;1832339;77;25754;-82
2022/12/05 05:14:04;;;;;;;23.85;16.45;;;;;;;1.49;93.72;101467.25;1832184;77;27511;-82
2022/12/05 05:16:37;;;;;;;25.05;17.15;;;;;;;1.48;93.71;101469.03;1828445;77;26489;-82
2022/12/05 05:19:06;;;;;;;22.73;15.65;;;;;;;1.47;93.60;101465.20;1830376;77;25855;-82
2022/12/05 05:21:38;;;;;;;23.00;16.27;;;;;;;1.48;93.63;101470.36;1833237;77;25805;-82
2022/12/05 05:24:07;;;;;;;24.90;15.50;;;;;;;1.48;93.64;101476.11;1834647;77;25847;-82
2022/12/05 05:26:36;;;;;;;24.25;16.55;;;;;;;1.47;93.55;101481.88;1829907;77;28325;-81
2022/12/05 05:29:04;;;;;;;23.80;15.72;;;;;;;1.49;93.64;101484.41;1827338;77;26391;-82
2022/12/05 05:31:31;;;;;;;26.35;16.65;;;;;;;1.47;93.48;101479.72;1822522;77;25776;-82
2022/12/05 05:33:58;;;;;;;23.52;15.38;;;;;;;1.47;93.44;101477.08;1833395;77;25766;-82
2022/12/05 05:36:26;;;;;;;27.62;18.45;;;;;;;1.46;93.44;101478.86;1831260;77;25841;-81
2022/12/05 05:38:56;;;;;;;43.60;30.17;;;;;;;1.46;93.36;101475.38;1833110;77;28234;-83
2022/12/05 05:41:32;;;;;;;28.92;19.37;;;;;;;1.45;93.39;101471.88;1832585;77;25922;-81
2022/12/05 05:43:59;;;;;;;24.35;15.35;;;;;;;1.46;93.51;101470.94;1835508;77;25896;-81
2022/12/05 05:46:30;;;;;;;26.45;19.82;;;;;;;1.45;93.38;101475.02;1825672;77;25731;-82
2022/12/05 05:48:56;;;;;;;23.77;15.63;;;;;;;1.44;93.42;101474.17;1831482;77;25781;-82
2022/12/05 05:51:28;;;;;;;24.20;17.02;;;;;;;1.48;93.52;101478.74;1835638;77;27451;-81
2022/12/05 05:53:51;;;;;;;25.15;16.80;;;;;;;1.49;93.57;101469.42;1837086;77;25921;-81
2022/12/05 05:56:19;;;;;;;23.30;15.43;;;;;;;1.51;93.36;101470.63;1806128;78;25516;-81
2022/12/05 05:58:47;;;;;;;26.73;16.45;;;;;;;1.49;93.28;101467.25;1803163;78;26326;-82
2022/12/05 06:01:21;;;;;;;22.93;16.62;;;;;;;1.48;93.32;101469.50;1805304;78;25818;-81
2022/12/05 06:03:49;;;;;;;22.37;16.00;;;;;;;1.49;93.31;101464.61;1807586;78;27453;-81
2022/12/05 06:06:16;;;;;;;28.10;18.48;;;;;;;1.48;93.25;101457.63;1804783;78;25828;-81
2022/12/05 06:08:44;;;;;;;27.55;17.37;;;;;;;1.46;93.27;101456.42;1802643;78;25411;-81
2022/12/05 06:11:17;;;;;;;27.05;16.75;;;;;;;1.47;93.28;101455.95;1805052;78;26211;-81
2022/12/05 06:13:43;;;;;;;31.65;19.98;;;;;;;1.45;93.28;101456.54;1803465;78;25814;-82
2022/12/05 06:16:14;;;;;;;29.27;18.62;;;;;;;1.45;93.35;101460.50;1809243;78;27433;-82
2022/12/05 06:18:40;;;;;;;26.85;18.23;;;;;;;1.45;93.33;101461.32;1807122;78;25788;-82
2022/12/05 06:21:08;;;;;;;25.60;16.30;;;;;;;1.44;93.24;101466.72;1806496;78;26469;-82
2022/12/05 06:23:36;;;;;;;27.52;18.40;;;;;;;1.43;93.33;101461.09;1807705;78;26236;-82
2022/12/05 06:26:04;;;;;;;27.27;18.70;;;;;;;1.44;93.52;101464.93;1811543;78;26633;-82
2022/12/05 06:28:31;;;;;;;29.30;18.80;;;;;;;1.49;93.51;101469.89;1805000;78;27465;-82
2022/12/05 06:30:57;;;;;;;30.35;18.35;;;;;;;1.49;93.33;101470.74;1799156;78;26562;-82
2022/12/05 06:33:24;;;;;;;36.40;20.88;;;;;;;1.47;93.28;101470.01;1803109;78;25868;-82
2022/12/05 06:36:03;;;;;;;27.45;17.92;;;;;;;1.49;93.42;101471.21;1803560;78;25762;-82
2022/12/05 06:38:30;;;;;;;47.70;26.27;;;;;;;1.51;93.39;101473.27;1801307;78;25739;-82
2022/12/05 06:40:56;;;;;;;27.95;19.30;;;;;;;1.51;93.32;101472.80;1804654;78;27413;-82
2022/12/05 06:43:22;;;;;;;30.80;18.75;;;;;;;1.55;93.39;101470.77;1795759;78;25866;-82
2022/12/05 06:45:49;;;;;;;37.78;20.48;;;;;;;1.54;93.35;101473.88;1794064;78;26133;-81
2022/12/05 06:48:15;;;;;;;30.75;18.80;;;;;;;1.57;93.31;101478.11;1811662;78;26275;-81
2022/12/05 06:50:51;;;;;;;29.60;19.65;;;;;;;1.58;93.30;101477.17;1811195;78;25939;-82
2022/12/05 06:53:18;;;;;;;47.88;25.62;;;;;;;1.58;93.24;101480.63;1778020;79;27483;-82
2022/12/05 06:55:57;;;;;;;43.87;26.37;;;;;;;1.58;93.28;101481.95;1799621;77;25333;-82
2022/12/05 06:58:23;;;;;;;47.23;28.35;;;;;;;1.59;93.18;101484.13;1798424;79;26106;-82
2022/12/05 07:03:35;;;;;;;34.88;21.90;;;;;;;1.61;93.11;101494.56;1798258;78;26349;-82
2022/12/05 07:06:04;;;;;;;37.98;23.60;;;;;;;1.61;93.28;101486.18;1775697;78;28276;-82
2022/12/05 07:08:32;;;;;;;52.78;33.67;;;;;;;1.62;93.11;101481.28;1805498;77;25897;-82
2022/12/05 07:10:58;;;;;;;45.38;28.47;;;;;;;1.61;93.05;101480.05;1785380;78;25736;-82
2022/12/05 07:13:25;;;;;;;47.85;26.05;;;;;;;1.61;93.22;101478.26;1787721;78;25829;-82
2022/12/05 07:15:51;;;;;;;43.17;23.32;;;;;;;1.65;93.34;101470.48;1785824;78;25927;-82
2022/12/05 07:18:18;;;;;;;42.08;24.85;;;;;;;1.68;93.28;101465.47;1783313;78;27442;-82
2022/12/05 07:20:44;;;;;;;42.45;25.12;;;;;;;1.68;93.22;101457.08;1803164;77;25881;-82
2022/12/05 07:23:11;;;;;;;35.20;22.05;;;;;;;1.70;93.24;101449.88;1795679;78;25823;-82
2022/12/05 07:25:40;;;;;;;39.35;25.82;;;;;;;1.72;93.20;101444.02;1774092;79;26267;-82
2022/12/05 07:28:07;;;;;;;29.50;19.82;;;;;;;1.72;93.09;101451.94;1777478;79;26558;-82
2022/12/05 07:30:35;;;;;;;29.67;19.45;;;;;;;1.72;93.09;101452.41;1794582;79;26842;-81
2022/12/05 07:33:03;;;;;;;34.55;21.75;;;;;;;1.72;93.19;101452.41;1795522;78;25948;-82
2022/12/05 07:35:29;;;;;;;32.17;20.02;;;;;;;1.76;93.42;101445.48;1792428;79;25798;-83
2022/12/05 07:37:55;;;;;;;35.20;21.90;;;;;;;1.78;93.15;101442.72;1772525;79;25632;-82
2022/12/05 07:40:21;;;;;;;33.00;20.00;;;;;;;1.77;93.00;101445.01;1782801;79;26381;-81
2022/12/05 07:42:48;;;;;;;31.95;19.60;;;;;;;1.72;92.92;101438.73;1810869;77;27525;-83
2022/12/05 07:45:15;;;;;;;40.25;24.30;;;;;;;1.69;92.92;101431.02;1791746;78;26385;-82
2022/12/05 07:47:41;;;;;;;48.87;27.60;;;;;;;1.66;92.90;101436.53;1799642;78;26133;-82
2022/12/05 07:50:08;;;;;;;40.00;22.37;;;;;;;1.65;92.98;101441.94;1806450;78;25784;-83
2022/12/05 07:52:34;;;;;;;36.88;21.57;;;;;;;1.62;93.01;101433.75;1809207;78;25782;-82
2022/12/05 07:55:00;;;;;;;36.48;20.05;;;;;;;1.63;93.26;101430.14;1804968;78;27457;-82
2022/12/05 07:57:29;;;;;;;37.45;21.60;;;;;;;1.64;93.25;101427.03;1800713;78;25912;-82
2022/12/05 07:59:55;;;;;;;43.13;24.75;;;;;;;1.65;93.34;101434.02;1800928;78;25290;-82
2022/12/05 08:02:22;;;;;;;40.48;22.82;;;;;;;1.67;93.52;101430.78;1812310;78;25899;-80
2022/12/05 08:04:48;;;;;;;55.23;27.65;;;;;;;1.67;93.35;101440.84;1816065;78;27581;-81
2022/12/05 08:07:14;;;;;;;138.75;56.45;;;;;;;1.67;93.46;101438.20;1817742;78;27443;-80
2022/12/05 08:09:41;;;;;;;134.65;47.00;;;;;;;1.71;93.54;101435.70;1803285;78;25909;-82
2022/12/05 08:12:07;;;;;;;66.07;36.17;;;;;;;1.67;93.32;101443.48;1809458;78;26460;-81
2022/12/05 08:14:38;;;;;;;37.90;23.30;;;;;;;1.66;93.42;101440.97;1760430;78;25871;-92
2022/12/05 08:17:05;;;;;;;44.93;26.52;;;;;;;1.69;93.59;101432.84;1743935;81;25815;-83
2022/12/05 08:19:31;;;;;;;37.33;22.07;;;;;;;1.74;93.78;101432.02;1733456;81;27462;-89
2022/12/05 08:21:57;;;;;;;45.55;22.58;;;;;;;1.74;93.68;101442.11;1738515;81;25976;-87
2022/12/05 08:24:24;;;;;;;44.80;23.85;;;;;;;1.75;93.69;101435.03;1747938;81;25772;-86
2022/12/05 08:26:50;;;;;;;35.23;19.45;;;;;;;1.77;93.63;101441.90;1732565;81;25823;-85
2022/12/05 08:29:20;;;;;;;37.40;20.90;;;;;;;1.77;93.67;101441.90;1730248;81;26316;-87
2022/12/05 08:31:54;;;;;;;39.75;20.08;;;;;;;1.77;93.63;101443.69;1758413;81;27516;-88
2022/12/05 08:34:33;;;;;;;;;;;;;;;;;;;;;
2022/12/05 08:36:54;;;;;;;49.65;30.17;;;;;;;1.76;93.62;101440.67;1729109;80;26005;-84
2022/12/05 08:39:32;;;;;;;39.20;23.80;;;;;;;1.76;93.65;101436.70;1710845;80;25825;-85
2022/12/05 08:41:57;;;;;;;37.50;20.45;;;;;;;1.79;93.79;101437.81;1716268;81;25879;-85
2022/12/05 08:44:24;;;;;;;35.70;21.33;;;;;;;1.82;93.88;101437.11;1789476;78;28325;-85
2022/12/05 08:46:50;;;;;;;37.48;18.70;;;;;;;1.80;93.63;101428.45;1802848;78;25957;-86
2022/12/05 08:49:17;;;;;;;36.70;20.97;;;;;;;1.80;93.67;101433.73;1752889;81;25824;-86
2022/12/05 08:51:44;;;;;;;34.92;21.02;;;;;;;1.83;93.69;101435.31;1742763;81;25847;-89
2022/12/05 08:54:11;;;;;;;37.78;23.55;;;;;;;1.86;93.89;101421.91;1723403;82;25862;-85
2022/12/05 08:56:38;;;;;;;35.48;21.15;;;;;;;1.89;93.88;101423.83;1745944;81;27438;-87
2022/12/05 08:59:05;;;;;;;36.70;21.27;;;;;;;1.92;93.78;101418.81;1745303;81;25764;-85
2022/12/05 09:01:37;;;;;;;34.73;21.70;;;;;;;1.92;93.71;101410.41;1739634;81;25842;-85
2022/12/05 09:04:03;;;;;;;35.15;20.60;;;;;;;1.92;93.65;101415.70;1734310;81;26424;-85
2022/12/05 09:06:31;;;;;;;35.80;20.15;;;;;;;1.90;93.55;101413.65;1731106;81;25896;-86
2022/12/05 09:09:03;;;;;;;40.17;21.25;;;;;;;1.88;93.46;101419.48;1751291;81;27634;-85
2022/12/05 09:11:34;;;;;;;37.98;20.23;;;;;;;1.86;93.50;101421.91;1712001;82;26550;-83
2022/12/05 09:14:01;;;;;;;42.50;22.95;;;;;;;1.87;93.68;101423.10;1748469;81;25805;-88
2022/12/05 09:16:32;;;;;;;36.95;21.60;;;;;;;1.91;93.84;101414.47;1754056;81;25819;-84
2022/12/05 09:18:58;;;;;;;42.45;22.50;;;;;;;1.92;93.64;101408.24;1730464;81;25908;-83
2022/12/05 09:21:28;;;;;;;46.05;22.87;;;;;;;1.91;93.64;101407.86;1726065;81;27465;-85
2022/12/05 09:23:58;;;;;;;44.42;23.75;;;;;;;1.89;93.58;101408.45;1732090;81;25720;-86
2022/12/05 09:26:26;;;;;;;49.25;25.80;;;;;;;1.87;93.63;101395.36;1798263;78;25757;-88
2022/12/05 09:28:57;;;;;;;39.75;22.45;;;;;;;1.89;93.64;101397.88;1794087;78;25841;-82
2022/12/05 09:31:26;;;;;;;37.80;21.80;;;;;;;1.88;93.79;101389.11;1793864;78;25596;-82
2022/12/05 09:33:52;;;;;;;38.40;22.80;;;;;;;1.92;93.95;101395.03;1804236;78;27985;-82
2022/12/05 09:36:23;;;;;;;45.12;23.52;;;;;;;1.95;94.02;101392.15;1795336;78;26104;-82
2022/12/05 09:38:51;;;;;;;38.00;21.62;;;;;;;1.96;93.97;101389.42;1804405;78;25830;-82
2022/12/05 09:44:26;;;;;;;39.53;22.52;;;;;;;1.99;93.86;101386.53;1782953;78;25741;-82
2022/12/05 09:47:00;;;;;;;40.88;22.80;;;;;;;1.99;93.85;101387.03;1779211;78;27457;-82
2022/12/05 09:49:28;;;;;;;35.88;20.08;;;;;;;2.01;94.02;101395.69;1798923;78;25728;-83
2022/12/05 09:51:55;;;;;;;33.15;19.95;;;;;;;2.05;94.00;101397.14;1762340;79;25797;-82
2022/12/05 09:54:24;;;;;;;40.15;20.82;;;;;;;2.07;93.99;101393.91;1793080;78;26265;-82
2022/12/05 09:56:52;;;;;;;37.90;20.17;;;;;;;2.07;93.84;101395.23;1782250;79;25972;-82
2022/12/05 09:59:19;;;;;;;38.45;20.88;;;;;;;2.08;93.90;101388.50;1779130;79;27436;-82
2022/12/05 10:02:12;;;;;;;36.70;20.72;;;;;;;2.08;93.89;101383.22;1794588;79;25755;-82
2022/12/05 10:05:00;;;;;;;40.43;21.68;;;;;;;2.10;93.88;101382.63;1793362;79;25907;-87
2022/12/05 10:08:05;;;;;;;37.25;19.23;;;;;;;2.12;93.84;101379.39;1777478;80;25502;-87
2022/12/05 10:11:03;;;;;;;38.98;20.15;;;;;;;2.12;93.75;101372.78;1796421;79;25830;-89
2022/12/05 10:14:05;;;;;;;40.55;21.37;;;;;;;2.14;93.93;101376.15;1776499;78;27478;-88
2022/12/05 10:17:01;;;;;;;;;;;;;;;;;;;;;
2022/12/05 10:19:28;;;;;;;40.48;23.05;;;;;;;2.26;94.16;101371.77;1496262;89;26530;-83
2022/12/05 10:22:18;;;;;;;42.75;23.27;;;;;;;2.28;94.05;101365.88;1643989;83;25825;-85
2022/12/05 10:25:01;;;;;;;42.13;23.98;;;;;;;2.29;93.96;101367.08;1692055;80;26574;-85
2022/12/05 10:27:36;;;;;;;45.08;24.30;;;;;;;2.28;93.73;101363.23;1737448;81;27848;-85
2022/12/05 10:30:12;;;;;;;42.95;23.55;;;;;;;2.28;93.64;101353.98;1736260;81;25715;-83
2022/12/05 10:32:54;;;;;;;41.08;22.42;;;;;;;2.26;93.51;101356.75;1733427;81;25815;-88
2022/12/05 10:35:38;;;;;;;44.93;23.90;;;;;;;2.27;93.60;101352.28;1742286;81;26374;-85
2022/12/05 10:38:19;;;;;;;43.50;23.27;;;;;;;2.27;93.63;101345.67;1722410;82;25334;-88
2022/12/05 10:40:50;;;;;;;47.75;25.57;;;;;;;2.28;93.67;101340.77;1717434;82;27543;-91
2022/12/05 10:43:27;;;;;;;42.15;24.40;;;;;;;2.27;93.63;101346.53;1758582;79;25930;-90
2022/12/05 10:45:54;;;;;;;47.60;23.65;;;;;;;2.28;93.65;101340.77;1760784;81;26173;-85
2022/12/05 10:48:22;;;;;;;48.10;25.70;;;;;;;2.28;93.64;101332.84;1731194;82;26246;-85
2022/12/05 10:50:52;;;;;;;47.43;24.98;;;;;;;2.29;93.82;101335.36;1743870;82;25875;-86
2022/12/05 10:53:26;;;;;;;54.97;31.43;;;;;;;2.34;93.91;101338.98;1755999;81;27453;-84
2022/12/05 10:55:53;;;;;;;51.02;26.93;;;;;;;2.34;93.79;101346.44;1708367;82;25859;-85
2022/12/05 10:58:26;;;;;;;56.55;29.63;;;;;;;2.37;93.67;101337.91;1754630;81;25872;-85
2022/12/05 11:01:07;;;;;;;63.87;32.63;;;;;;;2.38;93.70;101341.75;1753061;79;25867;-87
2022/12/05 11:03:41;;;;;;;53.33;26.05;;;;;;;2.37;93.66;101330.83;1773150;79;25744;-87
2022/12/05 11:06:30;;;;;;;58.17;30.32;;;;;;;2.40;93.64;101333.69;1739920;80;27483;-89
2022/12/05 11:09:18;;;;;;;52.62;27.17;;;;;;;2.44;93.84;101327.23;1737182;81;25939;-84
2022/12/05 11:12:02;;;;;;;50.28;25.90;;;;;;;2.45;93.64;101325.80;1730141;81;25846;-86
2022/12/05 11:14:30;;;;;;;50.03;26.07;;;;;;;2.42;93.47;101321.23;1723334;81;26402;-86
2022/12/05 11:16:59;;;;;;;54.55;28.12;;;;;;;2.40;93.45;101319.15;1760362;79;26417;-86
2022/12/05 11:19:31;;;;;;;55.15;27.42;;;;;;;2.37;93.30;101325.55;1763868;79;27635;-86
2022/12/05 11:21:58;;;;;;;48.85;25.88;;;;;;;2.37;93.46;101329.50;1775287;79;26380;-88
2022/12/05 11:24:37;;;;;;;64.17;32.33;;;;;;;2.38;93.58;101327.20;1743402;81;26108;-87
2022/12/05 11:27:27;;;;;;;59.35;31.25;;;;;;;2.41;93.70;101331.42;1730808;81;25830;-86
2022/12/05 11:30:01;;;;;;;77.78;38.00;;;;;;;2.42;93.64;101323.37;1765883;79;25492;-88
2022/12/05 11:32:31;;;;;;;96.60;42.80;;;;;;;2.45;93.71;101319.18;1773394;80;27526;-88
2022/12/05 11:35:26;;;;;;;100.45;46.77;;;;;;;2.47;93.65;101307.16;1773331;79;35453;-88
2022/12/05 11:38:05;;;;;;;72.78;35.52;;;;;;;2.49;93.73;101295.98;1734007;81;26394;-86
2022/12/05 11:41:03;;;;;;;103.62;51.65;;;;;;;2.49;93.62;101298.16;1748511;79;26317;-83
2022/12/05 11:43:58;;;;;;;139.68;66.50;;;;;;;2.50;93.56;101302.97;1790497;79;25810;-84
2022/12/05 11:46:59;;;;;;;160.48;73.83;;;;;;;2.50;93.65;101298.53;1767063;80;28709;-87
2022/12/05 11:49:51;;;;;;;124.05;55.70;;;;;;;2.49;93.58;101292.86;1760649;81;25829;-89
2022/12/05 11:52:35;;;;;;;74.15;41.13;;;;;;;2.47;93.63;101294.78;1760621;81;25834;-86
2022/12/05 11:55:50;;;;;;;59.73;31.42;;;;;;;2.47;93.61;101294.78;1767055;79;26549;-87
2022/12/05 11:58:40;;;;;;;54.98;28.12;;;;;;;2.43;93.54;101284.09;1754313;81;26466;-87